Latest Weather Observations for Butlers Gorge

IDT60801

Issued at 2:21 am EST Friday 19 August 2022 (issued every 10 minutes, with the page automatically refreshed every 10 minutes)

About weather observations | Map of weather stations | Latest weather observations for TAS | Other Formats
Station Details ID: 096003 Name: BUTLERS GORGE Lat: -42.28 Lon: 146.28 Height: 667.0 m
Data from the previous 72 hours. | See also: Recent months at Butlers Gorge
Date/Time
EST
Temp
°C
App
Temp
°C
Dew
Point
°C
Rel
Hum
%
Delta-T
°C
Wind Press
QNH
hPa
Press
MSL
hPa
Rain since
9am
mm
Dir  Spd
km/h
Gust
km/h
Spd
kts
Gust
kts
19/02:00am 3.3 -0.6 1.3 87 0.8 NW 11 20 6 11 - - 13.8
19/01:30am 3.4 -0.9 1.3 86 0.8 NW 13 20 7 11 - - 13.6
19/01:00am 3.5 0.6 1.5 87 0.8 WNW 6 15 3 8 - - 13.0
19/12:30am 3.6 -0.3 1.3 85 0.9 WNW 11 24 6 13 - - 12.8
19/12:00am 3.5 0.4 1.4 86 0.9 WNW 7 17 4 9 - - 12.0
 
Date/Time
EST
Temp
°C
App
Temp
°C
Dew
Point
°C
Rel
Hum
%
Delta-T
°C
Wind Press
QNH
hPa
Press
MSL
hPa
Rain since
9am
mm
Dir  Spd
km/h
Gust
km/h
Spd
kts
Gust
kts
18/11:30pm 3.1 -0.8 1.2 87 0.8 WNW 11 22 6 12 - - 12.0
18/11:00pm 3.7 0.3 1.7 87 0.8 W 9 24 5 13 - - 10.6
18/10:30pm 3.7 -0.2 1.4 85 0.9 NNW 11 26 6 14 - - 9.8
18/10:00pm 3.3 -1.0 1.2 86 0.8 NW 13 26 7 14 - - 9.8
18/09:30pm 3.6 0.6 2.3 91 0.5 SSW 7 15 4 8 - - 8.6
18/09:00pm 3.7 0.3 1.6 86 0.9 W 9 17 5 9 - - 8.0
18/08:30pm 4.6 0.5 2.3 85 1.0 WSW 13 24 7 13 - - 6.6
18/08:00pm 5.1 0.9 1.9 80 1.3 NW 13 30 7 16 - - 6.2
18/07:30pm 5.0 0.9 2.2 82 1.2 NW 13 24 7 13 - - 6.2
18/07:00pm 5.0 0.5 2.4 83 1.1 WNW 15 26 8 14 - - 6.2
18/06:30pm 4.6 0.9 2.5 86 0.9 WNW 11 26 6 14 - - 6.0
18/06:00pm 4.9 0.8 2.4 84 1.1 WNW 13 24 7 13 - - 5.4
18/05:30pm 5.2 2.0 2.9 85 1.0 W 9 30 5 16 - - 5.4
18/05:00pm 5.6 0.5 2.9 83 1.2 WNW 19 32 10 17 - - 5.4
18/04:30pm 6.2 1.5 3.4 82 1.2 WNW 17 32 9 17 - - 5.0
18/04:00pm 6.6 2.5 4.3 85 1.0 W 15 35 8 19 - - 4.0
18/03:30pm 7.3 2.8 4.3 81 1.4 WNW 17 32 9 17 - - 3.6
18/03:00pm 7.6 3.2 4.6 81 1.4 WNW 17 37 9 20 - - 3.0
18/02:30pm 8.3 3.4 4.3 76 1.8 NW 19 39 10 21 - - 2.8
18/02:00pm 9.1 3.2 3.9 70 2.4 NW 24 43 13 23 - - 2.6
18/01:30pm 8.6 3.6 4.6 76 1.8 NW 20 35 11 19 - - 2.6
18/01:00pm 8.9 3.2 4.7 75 1.9 NW 24 46 13 25 - - 2.0
18/12:30pm 9.1 5.7 6.0 81 1.5 NNW 13 30 7 16 - - 1.8
18/12:00pm 9.7 5.1 5.7 76 1.9 NW 19 43 10 23 - - 1.4
18/11:30am 9.4 5.3 6.3 81 1.5 NNW 17 39 9 21 - - 1.2
18/11:00am 9.0 6.5 6.6 85 1.2 N 9 17 5 9 - - 1.2
18/10:30am 9.2 7.1 6.6 84 1.3 NNW 7 15 4 8 - - 0.8
18/10:00am 8.5 5.9 6.3 86 1.1 NNW 9 17 5 9 - - 0.4
18/09:30am 8.4 5.8 6.2 86 1.0 NNW 9 19 5 10 - - 0.0
18/09:00am 8.3 6.1 6.1 86 1.0 N 7 13 4 7 - - 1.6
18/08:30am 8.4 6.4 6.2 86 1.0 NNE 6 11 3 6 - - 1.6
18/08:00am 7.8 5.8 6.1 89 0.8 W 6 13 3 7 - - 1.4
18/07:30am 7.8 5.7 5.9 88 0.9 NW 6 13 3 7 - - 1.2
18/07:00am 8.2 5.2 5.8 85 1.1 NW 11 20 6 11 - - 1.0
18/06:30am 8.2 5.8 5.3 82 1.4 NNW 7 17 4 9 - - 0.8
18/06:00am 8.1 5.4 5.6 84 1.2 NNW 9 17 5 9 - - 0.8
18/05:30am 8.5 5.7 5.1 79 1.6 NNW 9 15 5 8 - - 0.6
18/05:00am 8.8 5.1 4.6 75 1.9 NNW 13 24 7 13 - - 0.6
18/04:30am 8.5 5.2 4.5 76 1.8 NNW 11 19 6 10 - - 0.6
18/04:00am 8.2 4.1 4.4 77 1.7 W 15 26 8 14 - - 0.6
18/03:30am 8.2 4.8 4.2 76 1.8 W 11 28 6 15 - - 0.6
18/03:00am 7.6 5.0 4.2 79 1.5 SSW 7 15 4 8 - - 0.6
18/02:30am 7.9 5.3 4.3 78 1.6 W 7 17 4 9 - - 0.4
18/02:00am 8.2 4.8 3.9 74 1.9 W 11 24 6 13 - - 0.4
18/01:30am 7.7 3.9 3.7 76 1.8 WSW 13 20 7 11 - - 0.4
18/01:00am 7.7 3.9 3.7 76 1.8 WSW 13 24 7 13 - - 0.2
18/12:30am 7.8 4.4 4.0 77 1.7 WSW 11 24 6 13 - - 0.2
18/12:00am 7.6 5.0 4.2 79 1.5 SW 7 15 4 8 - - 0.0
 
Date/Time
EST
Temp
°C
App
Temp
°C
Dew
Point
°C
Rel
Hum
%
Delta-T
°C
Wind Press
QNH
hPa
Press
MSL
hPa
Rain since
9am
mm
Dir  Spd
km/h
Gust
km/h
Spd
kts
Gust
kts
17/11:30pm 8.0 4.9 3.8 75 1.9 WNW 9 17 5 9 - - 0.0
17/11:00pm 8.4 4.4 2.8 68 2.5 NW 13 28 7 15 - - 0.0
17/10:30pm 8.5 4.8 2.5 66 2.6 WNW 11 24 6 13 - - 0.0
17/10:00pm 8.8 4.7 2.2 63 2.9 NW 13 26 7 14 - - 0.0
17/09:30pm 8.8 3.8 3.4 69 2.4 WNW 19 48 10 26 - - 0.0
17/09:00pm 8.6 5.5 3.6 71 2.2 NW 9 24 5 13 - - 0.0
17/08:30pm 8.5 4.5 2.7 67 2.6 NNW 13 20 7 11 - - 0.0
17/08:00pm 8.0 3.9 2.3 67 2.5 NNW 13 22 7 12 - - 0.0
17/07:30pm 7.6 4.5 1.5 65 2.6 NW 7 19 4 10 - - 0.0
17/07:00pm 7.9 3.5 0.6 60 3.0 NNW 13 33 7 18 - - 0.0
17/06:30pm 7.9 4.3 0.6 60 3.0 NW 9 15 5 8 - - 0.0
17/06:00pm 8.5 4.8 -0.3 54 3.6 NW 9 17 5 9 - - 0.0
17/05:30pm 9.0 4.8 -0.9 50 4.0 NNW 11 17 6 9 - - 0.0
17/05:00pm 9.4 6.2 -0.2 51 4.0 NNW 6 15 3 8 - - 0.0
17/04:30pm 10.3 6.3 0.6 51 4.1 N 11 20 6 11 - - 0.0
17/04:00pm 10.8 7.3 1.4 52 4.1 N 9 17 5 9 - - 0.0
17/03:30pm 11.3 7.0 1.3 50 4.4 NNW 13 20 7 11 - - 0.0
17/03:00pm 12.2 9.0 0.6 45 5.0 NNW 7 15 4 8 - - 0.0
17/02:30pm 12.0 8.2 1.6 49 4.6 NNW 11 24 6 13 - - 0.0
17/02:00pm 11.9 9.0 1.5 49 4.6 W 6 17 3 9 - - 0.0
17/01:30pm 11.3 8.2 1.3 50 4.4 W 7 9 4 5 - - 0.0
17/01:00pm 11.3 8.1 0.7 48 4.6 NNW 7 17 4 9 - - 0.0
17/12:30pm 11.1 9.0 1.4 51 4.2 WSW 2 7 1 4 - - 0.0
17/12:00pm 10.4 7.5 2.5 58 3.5 NW 7 11 4 6 - - 0.0
17/11:30am 9.4 6.4 2.3 61 3.1 WNW 7 13 4 7 - - 0.0
17/11:00am 6.8 4.0 3.1 77 1.6 WSW 7 11 4 6 - - 0.0
17/10:30am 6.5 4.0 3.5 81 1.3 WSW 6 11 3 6 - - 0.0
17/10:00am 5.4 4.2 4.8 96 0.3 CALM 0 6 0 3 - - 0.0
17/09:30am 3.4 1.9 2.8 96 0.3 CALM 0 0 0 0 - - 0.0
17/09:00am 1.5 -0.3 0.9 96 0.2 CALM 0 0 0 0 - - 1.8
17/08:30am 1.0 -0.9 0.4 96 0.2 CALM 0 0 0 0 - - 1.8
17/08:00am 0.5 -2.3 -0.1 96 0.2 WSW 4 7 2 4 - - 1.8
17/07:30am -0.4 -2.5 -1.1 95 0.2 CALM 0 0 0 0 - - 1.8
17/07:00am -0.1 -2.6 -0.7 96 0.2 WSW 2 7 1 4 - - 1.8
17/06:30am -0.4 -2.5 -1.1 95 0.2 CALM 0 0 0 0 - - 1.8
17/06:00am 0.2 -1.8 -0.4 96 0.2 CALM 0 0 0 0 - - 1.8
17/05:30am 0.3 -2.1 -0.3 96 0.2 W 2 7 1 4 - - 1.8
17/05:00am 0.7 -2.0 0.1 96 0.2 W 4 9 2 5 - - 1.8
17/04:30am 0.7 -2.4 0.1 96 0.2 WSW 6 9 3 5 - - 1.8
17/04:00am 0.5 -2.3 -0.2 95 0.3 WSW 4 7 2 4 - - 1.8
17/03:30am 1.0 -2.1 0.4 96 0.2 W 6 7 3 4 - - 1.8
17/03:00am 0.9 -1.4 0.2 95 0.3 WSW 2 6 1 3 - - 1.8
17/02:30am 0.9 -1.8 0.2 95 0.3 WSW 4 6 2 3 - - 1.8
17/02:00am 2.2 0.5 1.6 96 0.2 CALM 0 0 0 0 - - 1.8
17/01:30am 2.4 0.7 1.7 95 0.3 CALM 0 0 0 0 - - 1.8
17/01:00am 2.4 0.3 1.7 95 0.3 WSW 2 6 1 3 - - 1.8
17/12:30am 3.1 1.5 2.4 95 0.3 CALM 0 6 0 3 - - 1.8
17/12:00am 3.3 0.6 2.6 95 0.3 W 6 7 3 4 - - 1.8
 
Date/Time
EST
Temp
°C
App
Temp
°C
Dew
Point
°C
Rel
Hum
%
Delta-T
°C
Wind Press
QNH
hPa
Press
MSL
hPa
Rain since
9am
mm
Dir  Spd
km/h
Gust
km/h
Spd
kts
Gust
kts
16/11:30pm 3.7 1.8 3.0 95 0.3 WNW 2 7 1 4 - - 1.8
16/11:00pm 3.7 2.2 3.0 95 0.3 CALM 0 0 0 0 - - 1.8
16/10:30pm 3.9 2.4 3.2 95 0.3 CALM 0 0 0 0 - - 1.8
16/10:00pm 3.4 1.1 2.7 95 0.3 W 4 6 2 3 - - 1.8
16/09:30pm 4.1 2.3 3.4 95 0.3 WSW 2 7 1 4 - - 1.6
16/09:00pm 3.7 2.2 2.8 94 0.4 CALM 0 4 0 2 - - 1.6
16/08:30pm 4.5 3.0 3.2 91 0.6 CALM 0 0 0 0 - - 1.6
16/08:00pm 5.4 3.0 4.2 92 0.5 WNW 6 9 3 5 - - 1.6
16/07:30pm 5.8 3.2 4.1 89 0.8 WNW 7 13 4 7 - - 1.6
16/07:00pm 6.2 3.7 4.5 89 0.8 W 7 13 4 7 - - 1.6
16/06:30pm 6.3 3.0 4.5 88 0.8 NNW 11 19 6 10 - - 1.6
16/06:00pm 6.4 3.5 4.6 88 0.8 N 9 15 5 8 - - 1.6
16/05:30pm 6.6 4.3 4.9 89 0.8 NW 6 11 3 6 - - 1.6
16/05:00pm 7.2 5.0 6.0 92 0.6 NW 7 9 4 5 - - 1.6
16/04:30pm 7.7 5.1 6.2 90 0.7 WSW 9 15 5 8 - - 1.4
16/04:00pm 8.0 6.0 6.3 89 0.8 WNW 6 13 3 7 - - 1.2
16/03:30pm 8.6 6.4 6.4 86 1.1 SSW 7 13 4 7 - - 0.8
16/03:00pm 8.9 6.0 6.7 86 1.1 WSW 11 22 6 12 - - 0.8
16/02:30pm 9.3 6.5 6.9 85 1.2 SW 11 20 6 11 - - 0.8
16/02:00pm 9.0 5.4 6.8 86 1.1 SW 15 24 8 13 - - 0.8
16/01:30pm 9.4 5.9 7.0 85 1.2 SW 15 28 8 15 - - 0.2
16/01:00pm 9.3 6.9 6.9 85 1.2 WSW 9 17 5 9 - - 0.2
16/12:30pm 8.9 5.9 6.2 83 1.3 WSW 11 19 6 10 - - 0.2
16/12:00pm 9.9 6.9 6.1 77 1.8 WSW 11 19 6 10 - - 0.2
16/11:30am 8.6 4.9 4.6 76 1.8 SW 13 24 7 13 - - 0.2
16/11:00am 8.8 5.5 4.6 75 1.9 WSW 11 19 6 10 - - 0.2
16/10:30am 8.0 5.1 4.8 80 1.5 SW 9 15 5 8 - - 0.2
16/10:00am 7.6 4.7 4.7 82 1.3 SSW 9 19 5 10 - - 0.2
16/09:30am 7.5 4.7 5.3 86 1.0 SSW 9 17 5 9 - - 0.0
16/09:00am 8.3 4.7 5.1 80 1.5 SW 13 24 7 13 - - 11.8
16/08:30am 7.3 3.0 5.1 86 1.0 SW 17 28 9 15 - - 11.8
16/08:00am 6.8 3.6 5.0 88 0.8 SW 11 20 6 11 - - 11.8
16/07:30am 6.6 2.9 4.3 85 1.0 SW 13 22 7 12 - - 11.8
16/07:00am 6.1 2.4 4.6 90 0.7 SW 13 24 7 13 - - 11.6
16/06:30am 5.2 3.6 4.5 95 0.3 NNW 2 7 1 4 - - 11.6
16/06:00am 5.3 4.1 4.4 94 0.4 CALM 0 0 0 0 - - 11.6
16/05:30am 5.4 3.4 4.5 94 0.4 SSW 4 7 2 4 - - 11.4
16/05:00am 5.5 3.0 4.5 93 0.4 WNW 7 11 4 6 - - 10.8
16/04:30am 5.4 2.8 4.4 93 0.4 W 7 11 4 6 - - 10.0
16/04:00am 5.2 2.8 4.3 94 0.4 W 6 11 3 6 - - 9.8
16/03:30am 5.1 3.5 4.4 95 0.3 WNW 2 6 1 3 - - 9.2
16/03:00am 5.1 3.5 4.4 95 0.3 NW 2 6 1 3 - - 8.0
16/02:30am 5.0 3.0 4.4 96 0.3 NNW 4 9 2 5 - - 6.6

Other formats

Comma delimited format used in spreadsheet applications
http://www.bom.gov.au/fwo/IDT60801/IDT60801.94959.axf

JavaScript Object Notation format (JSON) in row-major order
http://www.bom.gov.au/fwo/IDT60801/IDT60801.94959.json

Data quality

Most of these data are generated automatically and are frequently updated. Quality checks on data are not normally performed. It is possible for incorrect values to appear. Refer to information at About Latest Weather Observations and please check the disclaimer before using these data.